createdAt,value
2022-12-11T00:00:01.993Z,16.40
2022-12-11T00:02:32.538Z,20.40
2022-12-11T00:05:00.326Z,17.10
2022-12-11T00:07:28.114Z,19.70
2022-12-11T00:09:56.041Z,20.70
2022-12-11T00:12:23.835Z,15.80
2022-12-11T00:14:51.606Z,14.60
2022-12-11T00:17:19.338Z,15.60
2022-12-11T00:19:49.633Z,16.30
2022-12-11T00:22:17.615Z,13.70
2022-12-11T00:24:45.307Z,13.20
2022-12-11T00:27:13.135Z,15.40
2022-12-11T00:29:40.937Z,12.90
2022-12-11T00:32:09.040Z,13.50
2022-12-11T00:34:36.885Z,15.40
2022-12-11T00:37:04.728Z,14.40
2022-12-11T00:39:32.438Z,13.70
2022-12-11T00:42:00.120Z,12.50
2022-12-11T00:44:27.985Z,13.10
2022-12-11T00:46:55.668Z,13.90
2022-12-11T00:49:23.651Z,12.90
2022-12-11T00:51:51.431Z,13.90
2022-12-11T00:54:32.482Z,13.90
2022-12-11T00:57:00.187Z,13.00
2022-12-11T00:59:28.508Z,12.90
2022-12-11T01:01:56.619Z,14.20
2022-12-11T01:04:24.628Z,14.80
2022-12-11T01:06:52.283Z,13.60
2022-12-11T01:09:43.035Z,14.00
2022-12-11T01:12:10.769Z,13.10
2022-12-11T01:14:38.482Z,12.80
2022-12-11T01:17:06.205Z,12.60
2022-12-11T01:19:33.915Z,12.90
2022-12-11T01:22:01.682Z,14.00
2022-12-11T01:24:29.394Z,13.80
2022-12-11T01:26:57.132Z,16.30
2022-12-11T01:29:24.807Z,13.30
2022-12-11T01:31:58.746Z,13.50
2022-12-11T01:34:33.497Z,13.40
2022-12-11T01:37:07.759Z,13.20
2022-12-11T01:39:39.517Z,12.00
2022-12-11T01:42:10.576Z,11.60
2022-12-11T01:44:38.258Z,13.30
2022-12-11T01:47:05.863Z,13.00
2022-12-11T01:49:33.742Z,14.20
2022-12-11T01:52:03.614Z,13.10
2022-12-11T01:54:31.575Z,12.40
2022-12-11T01:57:06.990Z,14.00
2022-12-11T01:59:37.374Z,13.00
2022-12-11T02:02:08.926Z,11.70
2022-12-11T02:04:38.134Z,13.70
2022-12-11T02:07:06.243Z,12.90
2022-12-11T02:09:35.482Z,12.70
2022-12-11T02:12:12.425Z,14.20
2022-12-11T02:15:13.329Z,13.50
2022-12-11T02:17:44.273Z,12.10
2022-12-11T02:20:30.575Z,13.00
2022-12-11T02:22:58.284Z,12.50
2022-12-11T02:25:30.611Z,12.40
2022-12-11T02:28:09.761Z,14.00
2022-12-11T02:30:39.279Z,13.90
2022-12-11T02:33:07.256Z,13.30
2022-12-11T02:35:37.998Z,12.90
2022-12-11T02:38:08.887Z,11.70
2022-12-11T02:40:42.252Z,12.80
2022-12-11T02:43:11.496Z,13.90
2022-12-11T02:45:40.466Z,12.80
2022-12-11T02:48:09.878Z,11.90
2022-12-11T02:50:39.279Z,12.30
2022-12-11T02:53:15.857Z,13.50
2022-12-11T02:55:44.386Z,12.90
2022-12-11T02:58:12.106Z,11.70
2022-12-11T03:00:44.062Z,11.30
2022-12-11T03:03:12.442Z,11.60
2022-12-11T03:05:40.909Z,14.30
2022-12-11T03:08:08.868Z,14.70
2022-12-11T03:10:36.601Z,14.00
2022-12-11T03:13:04.849Z,13.30
2022-12-11T03:15:51.108Z,10.70
2022-12-11T03:18:23.685Z,12.70
2022-12-11T03:20:56.843Z,12.40
2022-12-11T03:23:33.518Z,12.00
2022-12-11T03:26:12.665Z,12.60
2022-12-11T03:28:40.366Z,11.40
2022-12-11T03:31:10.233Z,11.50
2022-12-11T03:33:40.239Z,11.40
2022-12-11T03:36:10.708Z,12.30
2022-12-11T03:38:44.385Z,12.80
2022-12-11T03:41:12.597Z,13.40
2022-12-11T03:43:41.055Z,11.80
2022-12-11T03:46:10.143Z,13.10
2022-12-11T03:48:40.631Z,13.60
2022-12-11T03:51:09.289Z,12.70
2022-12-11T03:53:37.597Z,13.00
2022-12-11T03:56:06.914Z,12.80
2022-12-11T03:58:35.630Z,12.40
2022-12-11T04:01:03.225Z,12.80
2022-12-11T04:03:30.918Z,13.20
2022-12-11T04:06:02.517Z,12.30
2022-12-11T04:08:30.406Z,12.90
2022-12-11T04:11:16.922Z,12.60
2022-12-11T04:13:44.771Z,13.40
2022-12-11T04:16:12.566Z,12.10
2022-12-11T04:18:59.291Z,12.50
2022-12-11T04:21:59.529Z,11.10
2022-12-11T04:24:27.347Z,16.20
2022-12-11T04:26:55.253Z,14.30
2022-12-11T04:29:23.095Z,13.30
2022-12-11T04:31:57.839Z,11.80
2022-12-11T04:34:25.561Z,14.20
2022-12-11T04:36:53.194Z,13.80
2022-12-11T04:39:20.885Z,14.10
2022-12-11T04:41:48.656Z,12.70
2022-12-11T04:44:16.902Z,15.50
2022-12-11T04:46:44.811Z,14.30
2022-12-11T04:49:12.618Z,14.20
2022-12-11T04:51:40.400Z,15.10
2022-12-11T04:54:08.171Z,15.90
2022-12-11T04:56:35.871Z,14.10
2022-12-11T04:59:03.583Z,14.00
2022-12-11T05:01:31.575Z,16.30
2022-12-11T05:04:00.034Z,15.30
2022-12-11T05:06:27.707Z,13.90
2022-12-11T05:08:55.534Z,15.20
2022-12-11T05:11:23.946Z,14.70
2022-12-11T05:13:51.845Z,15.20
2022-12-11T05:16:19.786Z,16.50
2022-12-11T05:18:47.588Z,17.00
2022-12-11T05:21:15.528Z,15.60
2022-12-11T05:23:43.319Z,15.70
2022-12-11T05:26:17.040Z,12.50
2022-12-11T05:28:49.240Z,13.90
2022-12-11T05:31:18.339Z,15.10
2022-12-11T05:33:46.610Z,15.80
2022-12-11T05:36:25.737Z,15.10
2022-12-11T05:38:53.710Z,15.50
2022-12-11T05:41:22.256Z,16.00
2022-12-11T05:43:50.454Z,15.60
2022-12-11T05:46:25.975Z,17.70
2022-12-11T05:48:55.416Z,17.10
2022-12-11T05:51:23.168Z,16.80
2022-12-11T05:53:51.980Z,17.60
2022-12-11T05:56:20.949Z,16.90
2022-12-11T05:58:48.959Z,17.00
2022-12-11T06:01:18.699Z,17.50
2022-12-11T06:03:46.611Z,18.70
2022-12-11T06:06:14.477Z,20.90
2022-12-11T06:08:42.215Z,18.30
2022-12-11T06:11:11.578Z,20.40
2022-12-11T06:13:39.559Z,19.80
2022-12-11T06:16:08.164Z,15.30
2022-12-11T06:18:37.141Z,18.70
2022-12-11T06:21:15.604Z,18.20
2022-12-11T06:23:50.549Z,19.00
2022-12-11T06:26:23.168Z,16.80
2022-12-11T06:28:50.849Z,19.10
2022-12-11T06:31:19.042Z,17.10
2022-12-11T06:33:47.086Z,19.70
2022-12-11T06:36:16.216Z,18.80
2022-12-11T06:38:44.531Z,18.50
2022-12-11T06:41:12.762Z,19.20
2022-12-11T06:43:41.226Z,19.10
2022-12-11T06:46:10.323Z,18.80
2022-12-11T06:48:42.518Z,19.90
2022-12-11T06:51:11.546Z,17.70
2022-12-11T06:53:39.933Z,17.40
2022-12-11T06:56:09.525Z,16.50
2022-12-11T06:58:37.559Z,16.40
2022-12-11T07:01:05.669Z,16.00
2022-12-11T07:03:33.668Z,17.20
2022-12-11T07:06:02.516Z,16.60
2022-12-11T07:08:31.937Z,16.00
2022-12-11T07:11:03.992Z,17.00
2022-12-11T07:13:31.799Z,14.70
2022-12-11T07:16:01.858Z,14.60
2022-12-11T07:18:30.393Z,15.90
2022-12-11T07:20:59.692Z,17.50
2022-12-11T07:23:28.456Z,15.10
2022-12-11T07:26:03.278Z,15.00
2022-12-11T07:28:41.709Z,14.80
2022-12-11T07:31:11.383Z,14.70
2022-12-11T07:33:39.333Z,14.80
2022-12-11T07:36:08.210Z,13.70
2022-12-11T07:38:36.774Z,15.30
2022-12-11T07:41:05.949Z,14.10
2022-12-11T07:43:35.342Z,15.10
2022-12-11T08:11:26.504Z,14.80
2022-12-11T08:13:59.257Z,16.80
2022-12-11T08:16:27.387Z,23.30
2022-12-11T08:18:55.517Z,17.80
2022-12-11T08:21:25.690Z,15.90
2022-12-11T08:23:53.834Z,13.20
2022-12-11T08:26:23.562Z,15.50
2022-12-11T08:28:51.898Z,14.70
2022-12-11T08:31:26.724Z,15.70
2022-12-11T08:33:55.186Z,15.50
2022-12-11T08:36:23.356Z,23.20
2022-12-11T08:38:52.144Z,16.40
2022-12-11T08:41:21.614Z,14.00
2022-12-11T08:43:54.922Z,14.00
2022-12-11T08:46:24.043Z,12.40
2022-12-11T08:48:51.883Z,15.00
2022-12-11T08:51:20.917Z,13.70
2022-12-11T08:53:48.898Z,12.90
2022-12-11T08:56:17.885Z,11.60
2022-12-11T08:58:47.395Z,10.40
2022-12-11T09:01:18.531Z,9.20
2022-12-11T09:03:46.490Z,12.30
2022-12-11T09:06:15.853Z,10.90
2022-12-11T09:08:50.400Z,11.10
2022-12-11T09:11:21.900Z,10.90
2022-12-11T09:13:50.727Z,9.60
2022-12-11T09:16:21.967Z,11.80
2022-12-11T09:18:51.095Z,12.10
2022-12-11T09:21:21.301Z,11.10
2022-12-11T09:23:52.487Z,11.70
2022-12-11T09:26:21.228Z,13.20
2022-12-11T09:28:51.635Z,11.80
2022-12-11T09:31:24.528Z,12.80
2022-12-11T09:33:54.731Z,21.90
2022-12-11T09:36:23.138Z,16.60
2022-12-11T09:38:51.230Z,19.40
2022-12-11T09:41:22.375Z,22.80
2022-12-11T09:44:12.327Z,19.90
2022-12-11T09:46:40.731Z,40.90
2022-12-11T09:49:24.782Z,24.20
2022-12-11T09:51:59.185Z,26.00
2022-12-11T09:54:27.035Z,24.80
2022-12-11T09:57:03.552Z,26.50
2022-12-11T09:59:39.203Z,20.60
2022-12-11T10:02:13.434Z,21.10
2022-12-11T10:04:50.236Z,23.00
2022-12-11T10:07:23.076Z,16.10
2022-12-11T10:10:13.813Z,16.90
2022-12-11T10:12:48.596Z,19.50
2022-12-11T10:15:36.128Z,16.90
2022-12-11T10:18:07.471Z,14.10
2022-12-11T10:20:40.319Z,14.80
2022-12-11T10:23:40.948Z,15.30
2022-12-11T10:26:19.480Z,15.10
2022-12-11T10:28:47.398Z,12.70
2022-12-11T10:31:32.642Z,14.00
2022-12-11T10:34:00.499Z,16.90
2022-12-11T10:36:28.203Z,14.70
2022-12-11T10:38:56.695Z,15.50
2022-12-11T10:41:31.923Z,15.60
2022-12-11T10:44:01.881Z,15.80
2022-12-11T10:46:30.003Z,24.90
2022-12-11T10:49:01.927Z,15.50
2022-12-11T10:51:33.030Z,16.40
2022-12-11T10:54:07.323Z,24.30
2022-12-11T10:56:39.154Z,16.80
2022-12-11T10:59:07.024Z,13.60
2022-12-11T11:01:35.868Z,13.00
2022-12-11T11:04:06.761Z,17.50
2022-12-11T11:06:34.548Z,17.90
2022-12-11T11:09:03.755Z,17.80
2022-12-11T11:11:34.257Z,19.30
2022-12-11T11:14:14.250Z,16.10
2022-12-11T11:16:43.658Z,16.40
2022-12-11T11:19:20.654Z,16.70
2022-12-11T11:21:53.694Z,16.70
2022-12-11T11:24:27.369Z,17.20
2022-12-11T11:29:53.366Z,24.80
2022-12-11T11:32:30.656Z,48.00
2022-12-11T11:39:47.108Z,27.60
2022-12-11T11:42:18.747Z,41.50
2022-12-11T11:44:54.511Z,44.70
2022-12-11T11:47:32.399Z,19.90
2022-12-11T11:50:08.941Z,20.20
2022-12-11T11:52:54.830Z,18.10
2022-12-11T11:55:30.281Z,21.60
2022-12-11T11:57:59.534Z,20.70
2022-12-11T12:00:33.290Z,19.90
2022-12-11T12:03:06.524Z,27.20
2022-12-11T12:05:44.334Z,18.90
2022-12-11T12:08:12.762Z,20.00
2022-12-11T12:10:41.784Z,20.50
2022-12-11T12:19:37.143Z,21.00
2022-12-11T12:22:18.026Z,15.30
2022-12-11T12:25:01.146Z,15.70
2022-12-11T12:27:52.539Z,13.50
2022-12-11T12:30:31.032Z,15.70
2022-12-11T12:33:02.089Z,17.50
2022-12-11T12:35:44.825Z,17.60
2022-12-11T12:38:19.890Z,31.30
2022-12-11T12:41:06.363Z,17.50
2022-12-11T12:43:44.384Z,32.00
2022-12-11T12:46:13.202Z,26.70
2022-12-11T12:48:41.185Z,20.20
2022-12-11T12:51:13.511Z,26.10
2022-12-11T12:53:51.374Z,21.80
2022-12-11T12:56:20.611Z,22.10
2022-12-11T12:58:48.358Z,18.50
2022-12-11T13:01:23.595Z,18.70
2022-12-11T13:04:47.474Z,18.50
2022-12-11T13:07:15.266Z,15.90
2022-12-11T13:09:43.089Z,14.60
2022-12-11T13:12:16.772Z,15.50
2022-12-11T13:14:45.289Z,15.70
2022-12-11T13:17:22.615Z,18.60
2022-12-11T13:20:09.539Z,13.80
2022-12-11T13:22:47.121Z,15.30
2022-12-11T13:25:23.519Z,16.30
2022-12-11T13:27:51.899Z,16.30
2022-12-11T13:30:19.823Z,13.70
2022-12-11T13:32:56.701Z,14.20
2022-12-11T13:35:24.853Z,14.40
2022-12-11T13:38:16.991Z,14.20
2022-12-11T13:40:46.782Z,13.50
2022-12-11T13:43:18.251Z,12.40
2022-12-11T13:45:51.171Z,11.60
2022-12-11T13:48:19.093Z,10.80
2022-12-11T13:50:47.050Z,11.40
2022-12-11T13:53:15.784Z,12.50
2022-12-11T13:55:44.059Z,12.20
2022-12-11T13:58:16.839Z,12.60
2022-12-11T14:00:53.179Z,12.50
2022-12-11T14:03:21.100Z,14.10
2022-12-11T14:05:51.257Z,13.40
2022-12-11T14:08:22.692Z,11.90
2022-12-11T14:10:52.394Z,13.20
2022-12-11T14:13:27.602Z,13.90
2022-12-11T14:15:57.433Z,14.40
2022-12-11T14:18:27.419Z,17.80
2022-12-11T14:21:02.711Z,15.50
2022-12-11T14:23:35.244Z,13.70
2022-12-11T14:26:04.771Z,16.50
2022-12-11T14:28:37.344Z,28.60
2022-12-11T14:31:05.897Z,19.60
2022-12-11T14:33:51.779Z,14.90
2022-12-11T14:36:22.560Z,17.60
2022-12-11T14:39:18.407Z,20.00
2022-12-11T14:41:49.252Z,15.40
2022-12-11T14:44:39.676Z,19.60
2022-12-11T14:47:20.722Z,19.80
2022-12-11T14:49:53.468Z,19.70
2022-12-11T14:52:26.484Z,12.50
2022-12-11T14:55:07.059Z,16.40
2022-12-11T14:57:35.953Z,15.90
2022-12-11T15:00:04.931Z,13.90
2022-12-11T15:02:34.179Z,36.40
2022-12-11T15:05:22.587Z,24.20
2022-12-11T15:08:01.049Z,23.00
2022-12-11T15:10:33.724Z,25.00
2022-12-11T15:13:02.150Z,23.90
2022-12-11T15:15:53.094Z,23.00
2022-12-11T15:18:38.678Z,18.00
2022-12-11T15:21:10.248Z,16.70
2022-12-11T15:23:51.662Z,21.40
2022-12-11T15:26:20.616Z,18.40
2022-12-11T15:29:02.975Z,22.90
2022-12-11T15:31:32.607Z,13.50
2022-12-11T15:34:01.110Z,16.40
2022-12-11T15:36:35.121Z,10.70
2022-12-11T15:39:05.790Z,17.30
2022-12-11T15:41:37.345Z,13.80
2022-12-11T15:44:07.020Z,19.90
2022-12-11T15:46:37.970Z,20.50
2022-12-11T15:49:11.290Z,14.80
2022-12-11T15:51:42.839Z,16.40
2022-12-11T15:54:12.015Z,18.50
2022-12-11T15:56:40.290Z,16.00
2022-12-11T15:59:08.702Z,11.40
2022-12-11T16:01:36.554Z,13.80
2022-12-11T16:04:06.381Z,13.70
2022-12-11T16:06:34.657Z,14.10
2022-12-11T16:09:04.151Z,17.10
2022-12-11T16:11:32.103Z,17.20
2022-12-11T16:14:04.456Z,17.30
2022-12-11T16:16:32.418Z,15.00
2022-12-11T16:19:01.925Z,16.10
2022-12-11T16:21:37.109Z,15.50
2022-12-11T16:24:05.065Z,10.80
2022-12-11T16:26:33.754Z,12.40
2022-12-11T16:29:02.217Z,13.40
2022-12-11T16:31:50.084Z,12.20
2022-12-11T16:34:18.039Z,17.50
2022-12-11T16:36:49.282Z,18.30
2022-12-11T16:39:17.106Z,17.70
2022-12-11T16:41:47.049Z,13.50
2022-12-11T16:44:19.663Z,15.10
2022-12-11T16:46:47.780Z,13.20
2022-12-11T16:49:16.915Z,12.20
2022-12-11T16:51:49.527Z,19.10
2022-12-11T16:54:19.096Z,34.60
2022-12-11T16:56:46.919Z,18.70
2022-12-11T16:59:16.659Z,23.00
2022-12-11T17:01:45.660Z,18.00
2022-12-11T17:04:13.583Z,15.70
2022-12-11T17:06:41.501Z,17.10
2022-12-11T17:09:09.439Z,23.80
2022-12-11T17:11:37.202Z,21.90
2022-12-11T17:14:05.009Z,24.80
2022-12-11T17:16:34.095Z,18.50
2022-12-11T17:19:07.621Z,14.90
2022-12-11T17:21:35.536Z,15.60
2022-12-11T17:24:13.264Z,19.80
2022-12-11T17:26:42.412Z,18.10
2022-12-11T17:29:12.019Z,17.30
2022-12-11T17:31:40.784Z,14.30
2022-12-11T17:34:10.973Z,18.30
2022-12-11T17:36:46.801Z,21.70
2022-12-11T17:39:14.630Z,12.00
2022-12-11T17:41:42.660Z,18.70
2022-12-11T17:44:10.510Z,15.80
2022-12-11T17:46:41.107Z,17.90
2022-12-11T17:49:09.658Z,15.10
2022-12-11T17:51:58.009Z,15.30
2022-12-11T17:54:26.920Z,18.50
2022-12-11T17:56:54.628Z,18.00
2022-12-11T17:59:22.397Z,15.40
2022-12-11T18:01:50.431Z,17.50
2022-12-11T18:04:18.372Z,18.80
2022-12-11T18:06:46.342Z,16.20
2022-12-11T18:09:20.708Z,19.60
2022-12-11T18:11:53.433Z,19.50
2022-12-11T18:14:21.292Z,19.10
2022-12-11T18:16:49.498Z,18.70
2022-12-11T18:19:17.583Z,14.80
2022-12-11T18:21:45.856Z,17.60
2022-12-11T18:24:14.194Z,13.90
2022-12-11T18:26:45.236Z,15.00
2022-12-11T18:29:13.222Z,31.40
2022-12-11T18:31:42.802Z,14.10
2022-12-11T18:34:11.102Z,31.80
2022-12-11T18:36:40.772Z,28.00
2022-12-11T18:39:18.655Z,29.10
2022-12-11T18:41:58.276Z,19.50
2022-12-11T18:44:30.129Z,16.70
2022-12-11T18:46:58.179Z,19.80
2022-12-11T18:49:26.810Z,26.70
2022-12-11T18:51:54.822Z,28.20
2022-12-11T18:54:42.641Z,19.20
2022-12-11T18:57:10.715Z,22.60
2022-12-11T18:59:39.811Z,24.60
2022-12-11T19:02:08.800Z,19.50
2022-12-11T19:04:38.193Z,25.50
2022-12-11T19:07:06.700Z,24.20
2022-12-11T19:09:38.437Z,22.80
2022-12-11T19:12:06.915Z,22.50
2022-12-11T19:14:34.707Z,18.80
2022-12-11T19:17:03.570Z,35.70
2022-12-11T19:19:51.707Z,26.80
2022-12-11T19:22:21.388Z,20.70
2022-12-11T19:25:30.730Z,17.20
2022-12-11T19:27:58.822Z,22.50
2022-12-11T19:30:26.796Z,13.50
2022-12-11T19:32:55.028Z,13.20
2022-12-11T19:35:22.671Z,13.80
2022-12-11T19:37:51.205Z,10.70
2022-12-11T19:40:20.958Z,15.20
2022-12-11T19:42:49.075Z,16.10
2022-12-11T19:45:17.207Z,15.20
2022-12-11T19:47:46.486Z,11.30
2022-12-11T19:50:22.386Z,11.60
2022-12-11T19:52:50.320Z,10.40
2022-12-11T19:55:19.702Z,9.70
2022-12-11T19:57:48.714Z,8.10
2022-12-11T20:00:16.849Z,14.30
2022-12-11T20:02:44.785Z,20.80
2022-12-11T20:05:14.260Z,24.30
2022-12-11T20:07:45.069Z,22.60
2022-12-11T20:10:13.355Z,21.70
2022-12-11T20:12:41.320Z,33.20
2022-12-11T20:15:09.288Z,31.10
2022-12-11T20:17:44.052Z,29.20
2022-12-11T20:20:12.186Z,32.10
2022-12-11T20:22:40.158Z,20.80
2022-12-11T20:25:08.136Z,14.20
2022-12-11T20:27:37.323Z,17.90
2022-12-11T20:30:08.749Z,15.60
2022-12-11T20:32:37.046Z,13.80
2022-12-11T20:35:05.942Z,21.50
2022-12-11T20:37:56.833Z,14.20
2022-12-11T20:40:26.482Z,16.00
2022-12-11T20:42:56.919Z,13.50
2022-12-11T20:45:25.774Z,17.80
2022-12-11T20:47:54.468Z,17.30
2022-12-11T20:50:30.241Z,19.80
2022-12-11T20:52:58.792Z,12.80
2022-12-11T20:55:26.738Z,11.60
2022-12-11T20:57:55.786Z,16.00
2022-12-11T21:00:24.283Z,13.30
2022-12-11T21:02:52.762Z,11.50
2022-12-11T21:05:20.626Z,10.50
2022-12-11T21:07:48.490Z,12.80
2022-12-11T21:10:16.479Z,18.20
2022-12-11T21:12:44.403Z,13.70
2022-12-11T21:15:12.488Z,13.30
2022-12-11T21:17:41.166Z,16.80
2022-12-11T21:20:09.496Z,28.00
2022-12-11T21:22:40.196Z,17.20
2022-12-11T21:25:08.075Z,15.70
2022-12-11T21:27:36.134Z,24.90
2022-12-11T21:30:05.360Z,19.10
2022-12-11T21:32:39.835Z,10.90
2022-12-11T21:35:08.372Z,13.80
2022-12-11T21:37:36.284Z,14.90
2022-12-11T21:40:04.313Z,14.30
2022-12-11T21:42:32.659Z,12.90
2022-12-11T21:47:48.391Z,10.20
2022-12-11T21:50:16.737Z,14.20
2022-12-11T21:52:44.530Z,14.50
2022-12-11T21:55:16.353Z,10.90
2022-12-11T21:57:44.134Z,15.20
2022-12-11T22:00:12.817Z,15.10
2022-12-11T22:02:42.410Z,14.40
2022-12-11T22:05:10.755Z,13.40
2022-12-11T22:07:38.906Z,14.70
2022-12-11T22:10:06.864Z,17.40
2022-12-11T22:12:34.626Z,16.60
2022-12-11T22:15:02.404Z,14.50
2022-12-11T22:17:31.799Z,14.70
2022-12-11T22:20:01.981Z,16.10
2022-12-11T22:22:29.854Z,14.50
2022-12-11T22:24:57.679Z,15.00
2022-12-11T22:27:25.684Z,15.10
2022-12-11T22:29:55.218Z,15.60
2022-12-11T22:32:23.084Z,19.40
2022-12-11T22:34:58.803Z,19.40
2022-12-11T22:37:26.916Z,20.30
2022-12-11T22:39:54.696Z,17.50
2022-12-11T22:42:22.483Z,15.80
2022-12-11T22:44:50.366Z,14.20
2022-12-11T22:47:18.094Z,8.70
2022-12-11T22:49:46.034Z,13.30
2022-12-11T22:52:13.970Z,13.50
2022-12-11T22:54:42.112Z,12.80
2022-12-11T22:57:09.842Z,12.70
2022-12-11T22:59:58.734Z,12.20
2022-12-11T23:02:26.511Z,11.60
2022-12-11T23:04:54.362Z,11.00
2022-12-11T23:07:22.269Z,12.50
2022-12-11T23:09:50.199Z,11.70
2022-12-11T23:12:24.565Z,10.90
2022-12-11T23:15:00.791Z,11.90
2022-12-11T23:17:36.054Z,10.30
2022-12-11T23:20:08.454Z,12.20
2022-12-11T23:22:36.313Z,10.10
2022-12-11T23:25:04.081Z,11.70
2022-12-11T23:27:31.807Z,11.10
2022-12-11T23:29:59.697Z,12.30
2022-12-11T23:32:28.650Z,12.90
2022-12-11T23:35:00.684Z,11.30
2022-12-11T23:37:36.623Z,11.40
2022-12-11T23:40:05.476Z,11.60
2022-12-11T23:42:35.046Z,12.90
2022-12-11T23:45:03.167Z,11.90
2022-12-11T23:47:31.113Z,11.10
2022-12-11T23:49:59.053Z,12.10
2022-12-11T23:52:27.180Z,11.50
2022-12-11T23:54:55.751Z,13.00
2022-12-11T23:57:24.061Z,12.70
2022-12-11T23:59:51.922Z,13.60
